createdAt,value
2023-03-16T00:00:17.687Z,54.38
2023-03-16T00:02:44.447Z,55.22
2023-03-16T00:05:12.883Z,80.57
2023-03-16T00:07:41.845Z,56.70
2023-03-16T00:10:11.958Z,76.03
2023-03-16T00:12:38.662Z,67.30
2023-03-16T00:15:05.961Z,52.92
2023-03-16T00:17:34.693Z,73.20
2023-03-16T00:20:06.485Z,132.40
2023-03-16T00:22:33.914Z,58.00
2023-03-16T00:25:00.901Z,59.20
2023-03-16T00:27:27.660Z,54.88
2023-03-16T00:29:57.678Z,99.05
2023-03-16T00:32:32.007Z,128.18
2023-03-16T00:37:26.759Z,60.20
2023-03-16T00:39:56.230Z,42.72
2023-03-16T00:42:27.641Z,59.97
2023-03-16T00:44:57.573Z,89.75
2023-03-16T00:47:32.727Z,59.72
2023-03-16T00:50:01.021Z,56.42
2023-03-16T00:52:29.124Z,52.90
2023-03-16T00:54:57.857Z,41.78
2023-03-16T00:57:25.932Z,57.70
2023-03-16T00:59:52.873Z,58.90
2023-03-16T01:02:23.458Z,40.85
2023-03-16T01:04:51.819Z,40.20
2023-03-16T01:07:19.411Z,44.65
2023-03-16T01:09:46.172Z,43.80
2023-03-16T01:12:15.679Z,51.42
2023-03-16T01:14:47.496Z,40.15
2023-03-16T01:17:15.187Z,42.45
2023-03-16T01:19:43.443Z,47.42
2023-03-16T01:22:11.602Z,47.10
2023-03-16T01:24:39.327Z,44.72
2023-03-16T01:27:06.781Z,39.55
2023-03-16T01:29:33.844Z,46.38
2023-03-16T01:32:01.517Z,47.13
2023-03-16T01:34:28.534Z,43.47
2023-03-16T01:36:56.180Z,38.65
2023-03-16T01:39:30.126Z,41.00
2023-03-16T01:41:56.988Z,38.72
2023-03-16T01:44:30.473Z,37.53
2023-03-16T01:47:01.372Z,34.75
2023-03-16T01:49:36.866Z,33.13
2023-03-16T01:52:19.047Z,33.45
2023-03-16T01:54:48.672Z,29.75
2023-03-16T01:57:19.038Z,29.40
2023-03-16T01:59:51.917Z,27.75
2023-03-16T02:02:21.757Z,32.33
2023-03-16T02:04:53.566Z,29.92
2023-03-16T02:07:24.941Z,30.55
2023-03-16T02:09:54.855Z,29.55
2023-03-16T02:12:22.805Z,25.08
2023-03-16T02:14:53.898Z,31.05
2023-03-16T02:17:23.264Z,33.83
2023-03-16T02:20:16.232Z,34.72
2023-03-16T02:22:45.854Z,30.27
2023-03-16T02:25:14.724Z,29.65
2023-03-16T02:27:58.440Z,36.92
2023-03-16T02:30:26.322Z,29.27
2023-03-16T02:32:59.775Z,39.28
2023-03-16T02:35:26.599Z,36.22
2023-03-16T02:37:54.080Z,38.15
2023-03-16T02:40:34.051Z,35.72
2023-03-16T02:43:09.564Z,30.60
2023-03-16T02:45:44.630Z,43.38
2023-03-16T02:48:37.813Z,36.92
2023-03-16T02:51:05.897Z,34.42
2023-03-16T02:53:32.819Z,32.90
2023-03-16T02:56:02.996Z,34.60
2023-03-16T02:58:32.226Z,29.42
2023-03-16T03:01:01.951Z,29.60
2023-03-16T03:03:28.831Z,30.05
2023-03-16T03:05:55.510Z,25.65
2023-03-16T03:08:23.515Z,27.30
2023-03-16T03:10:51.319Z,29.02
2023-03-16T03:13:18.028Z,25.05
2023-03-16T03:15:45.375Z,24.40
2023-03-16T03:18:12.238Z,24.73
2023-03-16T03:20:39.930Z,25.70
2023-03-16T03:23:06.682Z,34.00
2023-03-16T03:25:36.795Z,28.90
2023-03-16T03:28:08.319Z,28.90
2023-03-16T03:30:35.964Z,30.38
2023-03-16T03:33:03.835Z,29.13
2023-03-16T03:35:30.689Z,26.92
2023-03-16T03:37:57.632Z,30.75
2023-03-16T03:40:25.055Z,29.52
2023-03-16T03:42:57.702Z,28.48
2023-03-16T03:45:25.413Z,27.15
2023-03-16T03:47:52.305Z,25.20
2023-03-16T03:50:21.580Z,33.42
2023-03-16T03:53:14.454Z,24.35
2023-03-16T03:58:35.108Z,27.98
2023-03-16T04:01:02.339Z,28.90
2023-03-16T04:03:31.171Z,26.45
2023-03-16T04:05:58.147Z,30.73
2023-03-16T04:08:24.959Z,25.33
2023-03-16T04:10:51.966Z,26.85
2023-03-16T04:13:21.267Z,31.80
2023-03-16T04:15:49.363Z,27.30
2023-03-16T04:18:19.617Z,26.17
2023-03-16T04:20:46.378Z,26.77
2023-03-16T04:23:17.136Z,29.67
2023-03-16T04:25:46.748Z,30.67
2023-03-16T04:28:18.060Z,27.98
2023-03-16T04:30:48.151Z,25.88
2023-03-16T04:33:19.165Z,31.48
2023-03-16T04:35:46.399Z,26.75
2023-03-16T04:38:15.188Z,25.50
2023-03-16T04:40:51.614Z,29.98
2023-03-16T04:43:22.863Z,26.40
2023-03-16T04:45:52.365Z,26.77
2023-03-16T04:48:19.942Z,26.08
2023-03-16T04:50:48.382Z,29.40
2023-03-16T04:53:16.468Z,25.13
2023-03-16T04:55:47.640Z,27.20
2023-03-16T04:58:15.360Z,24.88
2023-03-16T05:00:42.100Z,24.40
2023-03-16T05:03:17.351Z,25.33
2023-03-16T05:05:46.370Z,27.85
2023-03-16T05:08:14.348Z,25.05
2023-03-16T05:10:44.764Z,26.25
2023-03-16T05:13:11.805Z,29.83
2023-03-16T05:15:38.874Z,26.90
2023-03-16T05:18:17.662Z,23.73
2023-03-16T05:20:45.498Z,31.30
2023-03-16T05:23:12.235Z,25.33
2023-03-16T05:25:47.360Z,26.33
2023-03-16T05:28:16.700Z,27.30
2023-03-16T05:30:52.503Z,24.08
2023-03-16T05:33:24.126Z,28.63
2023-03-16T05:35:58.010Z,26.07
2023-03-16T05:38:25.129Z,30.42
2023-03-16T05:40:54.074Z,29.30
2023-03-16T05:43:37.694Z,25.98
2023-03-16T05:46:04.910Z,30.10
2023-03-16T05:48:32.457Z,31.35
2023-03-16T05:50:59.928Z,27.20
2023-03-16T05:53:29.493Z,29.25
2023-03-16T05:56:03.274Z,30.77
2023-03-16T05:58:35.435Z,33.13
2023-03-16T06:01:07.281Z,32.05
2023-03-16T06:03:34.041Z,30.88
2023-03-16T06:06:02.034Z,30.30
2023-03-16T06:08:33.616Z,30.60
2023-03-16T06:11:07.855Z,30.80
2023-03-16T06:13:34.747Z,32.50
2023-03-16T06:16:02.187Z,34.13
2023-03-16T06:18:29.465Z,31.30
2023-03-16T06:20:56.532Z,32.05
2023-03-16T06:23:23.832Z,31.85
2023-03-16T06:25:51.184Z,31.90
2023-03-16T06:28:22.477Z,28.70
2023-03-16T06:30:53.537Z,32.70
2023-03-16T06:33:20.413Z,34.63
2023-03-16T06:35:51.397Z,32.33
2023-03-16T06:38:28.059Z,34.15
2023-03-16T06:41:08.617Z,34.55
2023-03-16T06:43:36.056Z,34.60
2023-03-16T06:46:03.396Z,33.90
2023-03-16T06:48:30.272Z,30.27
2023-03-16T06:50:57.655Z,34.17
2023-03-16T06:53:27.067Z,32.17
2023-03-16T06:55:55.493Z,33.60
2023-03-16T06:58:22.449Z,35.85
2023-03-16T07:00:49.499Z,47.83
2023-03-16T07:03:16.437Z,36.70
2023-03-16T07:05:48.936Z,36.50
2023-03-16T07:08:16.026Z,34.75
2023-03-16T07:10:42.741Z,38.00
2023-03-16T07:13:09.470Z,38.55
2023-03-16T07:15:36.217Z,39.33
2023-03-16T07:18:03.406Z,37.10
2023-03-16T07:20:32.209Z,34.65
2023-03-16T07:23:01.233Z,34.35
2023-03-16T07:25:28.196Z,35.92
2023-03-16T07:27:55.122Z,33.65
2023-03-16T07:30:28.217Z,34.78
2023-03-16T07:32:55.298Z,39.20
2023-03-16T07:35:24.369Z,36.35
2023-03-16T07:37:51.388Z,34.28
2023-03-16T07:40:19.365Z,38.20
2023-03-16T07:42:46.136Z,38.25
2023-03-16T07:45:26.149Z,38.15
2023-03-16T07:47:54.263Z,34.40
2023-03-16T07:50:33.282Z,36.20
2023-03-16T07:53:00.205Z,36.47
2023-03-16T07:55:27.586Z,39.83
2023-03-16T07:57:55.195Z,40.28
2023-03-16T08:00:29.130Z,38.28
2023-03-16T08:02:57.587Z,38.65
2023-03-16T08:05:27.186Z,40.85
2023-03-16T08:07:58.669Z,35.53
2023-03-16T08:10:27.962Z,38.83
2023-03-16T08:13:10.476Z,41.75
2023-03-16T08:15:42.264Z,33.13
2023-03-16T08:18:15.924Z,45.35
2023-03-16T08:20:44.824Z,43.53
2023-03-16T08:23:13.191Z,43.90
2023-03-16T08:25:41.462Z,37.05
2023-03-16T08:28:12.678Z,40.15
2023-03-16T08:30:50.928Z,47.20
2023-03-16T08:33:28.820Z,39.65
2023-03-16T08:35:55.946Z,39.35
2023-03-16T08:38:22.827Z,41.40
2023-03-16T08:40:52.218Z,34.80
2023-03-16T08:43:21.311Z,35.35
2023-03-16T08:45:49.103Z,42.33
2023-03-16T08:48:18.348Z,31.42
2023-03-16T08:50:48.323Z,35.03
2023-03-16T08:53:15.183Z,28.65
2023-03-16T08:55:42.111Z,29.35
2023-03-16T08:58:09.947Z,32.28
2023-03-16T09:00:37.410Z,33.15
2023-03-16T09:03:04.891Z,29.65
2023-03-16T09:05:32.669Z,34.35
2023-03-16T09:08:00.175Z,36.03
2023-03-16T09:10:27.690Z,31.25
2023-03-16T09:12:54.693Z,31.67
2023-03-16T09:15:21.536Z,33.95
2023-03-16T09:17:48.526Z,31.20
2023-03-16T09:20:26.888Z,32.72
2023-03-16T09:22:56.580Z,28.60
2023-03-16T09:25:25.249Z,29.42
2023-03-16T09:27:52.761Z,27.67
2023-03-16T09:30:19.830Z,31.05
2023-03-16T09:32:48.823Z,28.02
2023-03-16T09:35:15.922Z,30.25
2023-03-16T09:37:45.498Z,33.53
2023-03-16T09:40:25.459Z,26.35
2023-03-16T09:43:00.672Z,22.55
2023-03-16T09:45:34.269Z,22.00
2023-03-16T09:48:03.852Z,27.73
2023-03-16T09:50:47.882Z,24.52
2023-03-16T09:53:23.460Z,24.20
2023-03-16T09:55:53.669Z,22.58
2023-03-16T09:58:22.394Z,22.38
2023-03-16T10:01:19.538Z,23.38
2023-03-16T10:04:02.028Z,21.55
2023-03-16T10:06:29.080Z,25.53
2023-03-16T10:09:02.260Z,23.02
2023-03-16T10:11:32.140Z,24.55
2023-03-16T10:14:43.770Z,27.20
2023-03-16T10:17:18.919Z,23.20
2023-03-16T10:19:54.635Z,22.08
2023-03-16T10:22:26.392Z,26.08
2023-03-16T10:24:58.962Z,25.73
2023-03-16T10:27:31.034Z,23.92
2023-03-16T10:29:57.923Z,35.38
2023-03-16T10:32:29.249Z,25.15
2023-03-16T10:35:05.944Z,25.77
2023-03-16T10:37:32.963Z,28.60
2023-03-16T10:40:00.757Z,25.60
2023-03-16T10:42:27.839Z,28.08
2023-03-16T10:45:01.011Z,27.85
2023-03-16T10:47:31.484Z,24.15
2023-03-16T10:49:58.512Z,23.15
2023-03-16T10:52:34.542Z,23.75
2023-03-16T10:55:11.016Z,31.08
2023-03-16T10:57:41.733Z,28.48
2023-03-16T11:00:16.197Z,23.45
2023-03-16T11:02:43.381Z,22.75
2023-03-16T11:05:15.956Z,20.20
2023-03-16T11:07:58.216Z,22.48
2023-03-16T11:10:40.508Z,23.60
2023-03-16T11:13:17.591Z,23.70
2023-03-16T11:15:49.531Z,23.73
2023-03-16T11:18:39.101Z,23.83
2023-03-16T11:21:38.739Z,24.63
2023-03-16T11:24:14.192Z,25.25
2023-03-16T11:26:42.885Z,22.27
2023-03-16T11:29:20.970Z,21.90
2023-03-16T11:32:04.770Z,26.95
2023-03-16T11:34:33.149Z,19.63
2023-03-16T11:37:58.404Z,18.42
2023-03-16T11:40:29.024Z,23.25
2023-03-16T11:43:33.117Z,22.33
2023-03-16T11:48:39.528Z,19.20
2023-03-16T11:52:03.679Z,19.60
2023-03-16T11:55:05.272Z,18.30
2023-03-16T11:57:56.283Z,25.67
2023-03-16T12:00:29.976Z,18.30
2023-03-16T12:02:59.684Z,25.10
2023-03-16T12:05:43.030Z,24.83
2023-03-16T12:08:40.164Z,22.17
2023-03-16T12:11:17.099Z,15.75
2023-03-16T12:14:01.431Z,15.23
2023-03-16T12:16:48.676Z,21.38
2023-03-16T12:19:30.579Z,24.77
2023-03-16T12:22:21.728Z,15.45
2023-03-16T12:24:48.679Z,17.70
2023-03-16T12:27:27.243Z,15.23
2023-03-16T12:30:21.472Z,17.35
2023-03-16T12:33:10.993Z,14.85
2023-03-16T12:35:49.152Z,22.25
2023-03-16T12:38:22.157Z,16.45
2023-03-16T12:41:17.734Z,14.27
2023-03-16T12:43:55.745Z,13.85
2023-03-16T12:46:35.799Z,15.35
2023-03-16T12:49:05.479Z,18.42
2023-03-16T12:51:36.773Z,15.02
2023-03-16T12:54:04.257Z,12.77
2023-03-16T12:56:45.209Z,15.57
2023-03-16T12:59:18.643Z,17.73
2023-03-16T13:01:49.495Z,16.83
2023-03-16T13:04:21.903Z,14.13
2023-03-16T13:06:51.682Z,12.73
2023-03-16T13:09:22.018Z,18.40
2023-03-16T13:11:53.236Z,16.35
2023-03-16T13:14:40.897Z,14.07
2023-03-16T13:17:24.193Z,13.35
2023-03-16T13:20:31.187Z,14.05
2023-03-16T13:23:27.739Z,13.48
2023-03-16T13:26:16.026Z,15.57
2023-03-16T13:28:46.036Z,16.27
2023-03-16T13:31:24.385Z,14.20
2023-03-16T13:33:55.820Z,10.85
2023-03-16T13:36:23.983Z,14.35
2023-03-16T13:39:05.391Z,14.80
2023-03-16T13:41:32.439Z,10.18
2023-03-16T13:43:59.138Z,11.68
2023-03-16T13:46:30.416Z,12.23
2023-03-16T13:49:00.806Z,7.68
2023-03-16T13:51:28.797Z,9.68
2023-03-16T13:53:55.626Z,9.93
2023-03-16T13:56:26.476Z,9.15
2023-03-16T13:58:53.945Z,8.70
2023-03-16T14:01:32.723Z,13.13
2023-03-16T14:04:08.758Z,11.38
2023-03-16T14:06:36.685Z,8.50
2023-03-16T14:09:06.169Z,16.13
2023-03-16T14:11:33.210Z,15.57
2023-03-16T14:14:00.685Z,5.10
2023-03-16T14:16:29.685Z,7.35
2023-03-16T14:19:06.062Z,9.50
2023-03-16T14:21:36.386Z,8.45
2023-03-16T14:24:05.728Z,7.50
2023-03-16T14:26:47.343Z,6.20
2023-03-16T14:29:32.276Z,10.52
2023-03-16T14:32:00.191Z,6.20
2023-03-16T14:34:39.610Z,7.38
2023-03-16T14:37:11.782Z,6.10
2023-03-16T14:39:40.502Z,5.97
2023-03-16T14:42:29.840Z,5.43
2023-03-16T14:44:58.798Z,7.97
2023-03-16T14:47:29.324Z,11.80
2023-03-16T14:50:01.710Z,6.40
2023-03-16T14:52:31.690Z,5.55
2023-03-16T14:54:59.089Z,5.85
2023-03-16T14:57:26.696Z,7.45
2023-03-16T14:59:53.972Z,10.35
2023-03-16T15:02:31.252Z,10.45
2023-03-16T15:04:58.937Z,6.93
2023-03-16T15:07:28.491Z,11.60
2023-03-16T15:09:57.183Z,13.10
2023-03-16T15:12:26.093Z,13.23
2023-03-16T15:15:11.625Z,7.72
2023-03-16T15:17:38.897Z,8.45
2023-03-16T15:20:07.175Z,10.70
2023-03-16T15:22:36.813Z,12.75
2023-03-16T15:25:17.366Z,7.53
2023-03-16T15:27:44.433Z,7.07
2023-03-16T15:30:23.461Z,6.22
2023-03-16T15:32:50.334Z,7.80
2023-03-16T15:35:17.480Z,11.48
2023-03-16T15:37:44.653Z,9.85
2023-03-16T15:40:19.855Z,8.02
2023-03-16T15:42:47.078Z,8.40
2023-03-16T15:45:20.603Z,11.20
2023-03-16T15:47:48.784Z,6.93
2023-03-16T15:50:18.348Z,6.05
2023-03-16T15:52:52.705Z,7.32
2023-03-16T15:55:21.881Z,9.18
2023-03-16T15:57:52.242Z,9.27
2023-03-16T16:00:28.055Z,5.45
2023-03-16T16:02:57.746Z,10.02
2023-03-16T16:05:25.382Z,5.72
2023-03-16T16:07:52.720Z,9.25
2023-03-16T16:10:20.053Z,8.38
2023-03-16T16:12:51.370Z,9.57
2023-03-16T16:15:25.624Z,8.40
2023-03-16T16:18:19.205Z,8.32
2023-03-16T16:20:43.222Z,6.18
2023-03-16T16:23:10.456Z,7.50
2023-03-16T16:25:40.225Z,8.27
2023-03-16T16:28:33.177Z,8.80
2023-03-16T16:31:01.570Z,8.98
2023-03-16T16:33:35.594Z,7.47
2023-03-16T16:36:04.626Z,5.95
2023-03-16T16:38:31.923Z,5.45
2023-03-16T16:41:03.450Z,8.73
2023-03-16T16:43:42.464Z,9.70
2023-03-16T16:46:18.572Z,7.85
2023-03-16T16:48:51.023Z,7.35
2023-03-16T16:51:23.320Z,11.93
2023-03-16T16:53:51.531Z,9.63
2023-03-16T16:56:22.783Z,9.75
2023-03-16T16:58:49.521Z,14.23
2023-03-16T17:01:23.917Z,6.32
2023-03-16T17:03:51.039Z,5.38
2023-03-16T17:06:19.153Z,6.97
2023-03-16T17:08:47.011Z,9.02
2023-03-16T17:11:23.822Z,9.93
2023-03-16T17:13:51.389Z,9.48
2023-03-16T17:16:18.704Z,12.43
2023-03-16T17:18:45.741Z,7.20
2023-03-16T17:21:14.567Z,9.15
2023-03-16T17:23:41.595Z,8.13
2023-03-16T17:26:19.127Z,9.27
2023-03-16T17:28:48.685Z,11.23
2023-03-16T17:31:20.488Z,9.95
2023-03-16T17:33:47.370Z,13.93
2023-03-16T17:36:16.479Z,11.68
2023-03-16T17:38:43.403Z,8.13
2023-03-16T17:41:23.177Z,13.98
2023-03-16T17:43:51.461Z,10.07
2023-03-16T17:46:20.351Z,7.05
2023-03-16T17:48:47.813Z,6.57
2023-03-16T17:51:16.507Z,7.95
2023-03-16T17:53:44.094Z,7.75
2023-03-16T17:56:23.232Z,9.27
2023-03-16T17:58:52.897Z,16.50
2023-03-16T18:01:22.085Z,19.13
2023-03-16T18:03:49.527Z,8.88
2023-03-16T18:06:22.998Z,15.00
2023-03-16T18:11:20.943Z,12.98
2023-03-16T18:13:49.807Z,9.15
2023-03-16T18:16:28.136Z,13.90
2023-03-16T18:18:59.909Z,15.90
2023-03-16T18:21:28.324Z,32.25
2023-03-16T18:23:55.915Z,12.95
2023-03-16T18:26:24.110Z,9.68
2023-03-16T18:28:53.530Z,17.30
2023-03-16T18:31:25.692Z,19.80
2023-03-16T18:33:55.638Z,18.98
2023-03-16T18:36:28.120Z,21.00
2023-03-16T18:38:56.051Z,18.00
2023-03-16T18:41:28.102Z,20.50
2023-03-16T18:44:00.188Z,18.15
2023-03-16T18:46:30.283Z,19.67
2023-03-16T18:49:02.245Z,22.98
2023-03-16T18:51:29.776Z,17.30
2023-03-16T18:53:56.549Z,23.67
2023-03-16T18:56:25.436Z,15.07
2023-03-16T18:58:53.135Z,16.00
2023-03-16T19:01:31.602Z,22.40
2023-03-16T19:03:59.899Z,17.77
2023-03-16T19:06:31.884Z,23.00
2023-03-16T19:09:03.506Z,22.75
2023-03-16T19:11:30.237Z,19.20
2023-03-16T19:13:56.937Z,21.27
2023-03-16T19:16:23.783Z,22.60
2023-03-16T19:18:50.727Z,18.80
2023-03-16T19:21:22.906Z,20.08
2023-03-16T19:24:00.437Z,28.55
2023-03-16T19:26:27.374Z,21.95
2023-03-16T19:28:54.163Z,18.38
2023-03-16T19:31:23.587Z,16.80
2023-03-16T19:33:51.895Z,20.73
2023-03-16T19:36:24.518Z,19.73
2023-03-16T19:38:51.740Z,21.45
2023-03-16T19:41:22.565Z,21.60
2023-03-16T19:43:51.417Z,25.77
2023-03-16T19:46:18.164Z,18.88
2023-03-16T19:48:45.122Z,18.95
2023-03-16T19:51:17.212Z,19.17
2023-03-16T19:53:44.243Z,21.15
2023-03-16T19:56:18.727Z,23.65
2023-03-16T19:58:47.375Z,18.80
2023-03-16T20:01:32.130Z,18.85
2023-03-16T20:03:59.570Z,19.45
2023-03-16T20:06:27.088Z,22.35
2023-03-16T20:08:54.346Z,18.52
2023-03-16T20:11:28.330Z,35.22
2023-03-16T20:13:56.003Z,17.63
2023-03-16T20:16:28.513Z,19.65
2023-03-16T20:18:57.618Z,19.10
2023-03-16T20:21:25.110Z,20.48
2023-03-16T20:23:52.514Z,19.50
2023-03-16T20:26:25.223Z,17.17
2023-03-16T20:28:51.967Z,17.08
2023-03-16T20:31:31.299Z,21.90
2023-03-16T20:33:58.363Z,20.08
2023-03-16T20:36:26.371Z,24.70
2023-03-16T20:38:53.084Z,26.42
2023-03-16T20:41:24.576Z,19.67
2023-03-16T20:43:51.827Z,21.55
2023-03-16T20:46:23.998Z,17.50
2023-03-16T20:48:50.894Z,33.28
2023-03-16T20:51:18.313Z,25.10
2023-03-16T20:53:46.450Z,27.27
2023-03-16T20:56:17.920Z,20.52
2023-03-16T20:58:47.772Z,25.15
2023-03-16T21:01:18.334Z,23.17
2023-03-16T21:03:47.476Z,19.73
2023-03-16T21:06:28.616Z,17.50
2023-03-16T21:08:57.992Z,16.60
2023-03-16T21:11:27.804Z,18.27
2023-03-16T21:13:54.597Z,15.48
2023-03-16T21:16:21.617Z,21.00
2023-03-16T21:18:49.598Z,25.52
2023-03-16T21:21:18.142Z,19.60
2023-03-16T21:23:45.374Z,18.88
2023-03-16T21:26:17.642Z,21.67
2023-03-16T21:28:48.324Z,17.93
2023-03-16T21:31:19.523Z,16.20
2023-03-16T21:33:46.554Z,23.58
2023-03-16T21:36:16.658Z,26.02
2023-03-16T21:38:44.381Z,15.30
2023-03-16T21:41:11.656Z,17.17
2023-03-16T21:43:39.480Z,17.65
2023-03-16T21:46:13.378Z,21.35
2023-03-16T21:48:41.477Z,19.85
2023-03-16T21:51:22.097Z,19.98
2023-03-16T21:53:49.584Z,15.93
2023-03-16T21:56:22.674Z,19.45
2023-03-16T21:58:50.124Z,16.65
2023-03-16T22:01:24.801Z,18.08
2023-03-16T22:03:53.349Z,19.27
2023-03-16T22:06:21.650Z,23.10
2023-03-16T22:08:50.804Z,25.38
2023-03-16T22:11:23.649Z,17.20
2023-03-16T22:13:51.424Z,18.67
2023-03-16T22:16:20.512Z,15.88
2023-03-16T22:18:48.892Z,19.95
2023-03-16T22:21:26.224Z,18.65
2023-03-16T22:23:53.586Z,15.10
2023-03-16T22:26:22.412Z,18.77
2023-03-16T22:29:09.515Z,17.27
2023-03-16T22:34:57.153Z,16.75
2023-03-16T22:37:28.735Z,16.70
2023-03-16T22:39:57.320Z,20.90
2023-03-16T22:42:31.773Z,13.50
2023-03-16T22:44:58.968Z,23.50
2023-03-16T22:47:28.262Z,19.02
2023-03-16T22:49:55.002Z,12.68
2023-03-16T22:52:28.706Z,16.40
2023-03-16T22:54:55.845Z,20.27
2023-03-16T22:57:22.695Z,21.33
2023-03-16T22:59:49.696Z,16.88
2023-03-16T23:02:16.700Z,16.33
2023-03-16T23:04:44.394Z,18.85
2023-03-16T23:07:12.489Z,16.55
2023-03-16T23:09:39.845Z,19.95
2023-03-16T23:12:14.456Z,19.58
2023-03-16T23:14:41.553Z,14.73
2023-03-16T23:17:16.523Z,17.88
2023-03-16T23:19:43.647Z,15.82
2023-03-16T23:22:10.974Z,17.77
2023-03-16T23:24:38.189Z,15.52
2023-03-16T23:27:05.186Z,18.00
2023-03-16T23:29:32.296Z,18.90
2023-03-16T23:31:59.279Z,16.48
2023-03-16T23:34:26.388Z,17.48
2023-03-16T23:36:53.253Z,13.90
2023-03-16T23:39:20.081Z,19.58
2023-03-16T23:41:48.859Z,15.95
2023-03-16T23:44:18.690Z,15.40
2023-03-16T23:46:45.856Z,18.77
2023-03-16T23:49:19.718Z,17.65
2023-03-16T23:51:46.945Z,16.00
2023-03-16T23:54:20.676Z,16.83
2023-03-16T23:56:47.513Z,14.18
2023-03-16T23:59:14.383Z,16.95
